createdAt,value
2022-10-08T00:01:29.650Z,92.97
2022-10-08T00:03:57.963Z,89.68
2022-10-08T00:06:28.185Z,92.13
2022-10-08T00:08:58.416Z,98.07
2022-10-08T00:11:28.886Z,87.50
2022-10-08T00:13:59.366Z,97.55
2022-10-08T00:16:29.803Z,91.55
2022-10-08T00:19:01.100Z,90.15
2022-10-08T00:21:31.463Z,91.85
2022-10-08T00:24:01.314Z,93.60
2022-10-08T00:26:31.765Z,101.43
2022-10-08T00:29:04.914Z,77.60
2022-10-08T00:31:35.819Z,87.38
2022-10-08T00:34:08.046Z,82.15
2022-10-08T00:36:38.222Z,91.95
2022-10-08T00:39:08.694Z,75.60
2022-10-08T00:41:38.710Z,83.88
2022-10-08T00:44:40.630Z,88.47
2022-10-08T00:47:16.780Z,86.95
2022-10-08T00:49:45.419Z,118.38
2022-10-08T00:52:13.789Z,92.77
2022-10-08T00:54:42.160Z,87.72
2022-10-08T00:57:10.393Z,85.80
2022-10-08T00:59:38.866Z,86.00
2022-10-08T01:02:08.490Z,98.50
2022-10-08T01:04:39.651Z,85.45
2022-10-08T01:07:14.276Z,82.82
2022-10-08T01:09:49.533Z,82.05
2022-10-08T01:12:26.776Z,67.00
2022-10-08T01:14:59.583Z,59.10
2022-10-08T01:17:37.229Z,64.70
2022-10-08T01:20:32.281Z,62.92
2022-10-08T01:23:29.543Z,62.03
2022-10-08T01:26:04.849Z,54.50
2022-10-08T01:28:40.010Z,54.20
2022-10-08T01:31:10.792Z,52.47
2022-10-08T01:33:44.190Z,54.35
2022-10-08T01:36:14.178Z,53.22
2022-10-08T01:38:47.277Z,55.67
2022-10-08T01:41:18.562Z,58.03
2022-10-08T01:43:54.112Z,59.35
2022-10-08T01:46:25.869Z,61.63
2022-10-08T01:48:57.573Z,52.25
2022-10-08T01:51:32.885Z,54.85
2022-10-08T01:54:04.331Z,47.08
2022-10-08T01:56:35.218Z,49.58
2022-10-08T01:59:09.169Z,42.40
2022-10-08T02:01:42.011Z,60.85
2022-10-08T02:04:42.157Z,43.22
2022-10-08T02:07:12.119Z,48.45
2022-10-08T02:09:42.834Z,47.75
2022-10-08T02:12:11.969Z,41.13
2022-10-08T02:14:44.256Z,44.45
2022-10-08T02:17:25.292Z,60.85
2022-10-08T02:19:57.585Z,38.53
2022-10-08T02:22:31.704Z,39.38
2022-10-08T02:25:02.995Z,33.80
2022-10-08T02:27:41.549Z,36.63
2022-10-08T02:30:13.682Z,40.83
2022-10-08T02:32:50.802Z,40.17
2022-10-08T02:35:23.639Z,39.97
2022-10-08T02:37:57.106Z,40.03
2022-10-08T02:40:25.837Z,38.72
2022-10-08T02:42:59.265Z,34.72
2022-10-08T02:45:31.343Z,45.67
2022-10-08T02:48:04.783Z,38.25
2022-10-08T02:50:35.750Z,40.83
2022-10-08T02:53:04.793Z,41.00
2022-10-08T02:55:41.212Z,182.40
2022-10-08T02:58:11.831Z,44.90
2022-10-08T03:00:49.478Z,84.00
2022-10-08T03:03:23.009Z,109.15
2022-10-08T03:05:52.660Z,23.92
2022-10-08T03:08:22.802Z,85.43
2022-10-08T03:10:51.866Z,38.22
2022-10-08T03:13:21.037Z,32.75
2022-10-08T03:15:54.043Z,33.70
2022-10-08T03:18:25.533Z,45.25
2022-10-08T03:20:55.834Z,33.00
2022-10-08T03:23:25.433Z,20.92
2022-10-08T03:28:21.407Z,22.20
2022-10-08T03:30:50.966Z,27.17
2022-10-08T03:35:47.430Z,21.80
2022-10-08T03:38:16.517Z,23.83
2022-10-08T03:40:45.145Z,29.85
2022-10-08T03:43:13.183Z,39.93
2022-10-08T03:45:50.965Z,34.30
2022-10-08T03:48:19.545Z,19.85
2022-10-08T03:50:53.145Z,21.60
2022-10-08T03:53:21.568Z,20.48
2022-10-08T03:55:49.702Z,37.22
2022-10-08T03:58:17.901Z,30.00
2022-10-08T04:00:56.612Z,35.40
2022-10-08T04:03:26.915Z,88.90
2022-10-08T04:05:55.053Z,63.00
2022-10-08T04:08:23.146Z,34.85
2022-10-08T04:10:51.194Z,45.58
2022-10-08T04:13:19.607Z,65.70
2022-10-08T04:15:50.663Z,66.65
2022-10-08T04:18:19.007Z,64.82
2022-10-08T04:20:48.438Z,87.85
2022-10-08T04:23:17.540Z,44.40
2022-10-08T04:25:51.150Z,40.38
2022-10-08T04:28:19.373Z,34.20
2022-10-08T04:30:56.281Z,47.55
2022-10-08T04:33:24.681Z,38.05
2022-10-08T04:35:59.857Z,48.53
2022-10-08T04:38:29.251Z,66.20
2022-10-08T04:41:06.399Z,39.83
2022-10-08T04:43:34.561Z,37.25
2022-10-08T04:46:02.931Z,58.03
2022-10-08T04:48:31.245Z,42.10
2022-10-08T04:51:05.814Z,56.78
2022-10-08T04:53:36.665Z,63.17
2022-10-08T04:56:13.431Z,38.08
2022-10-08T04:58:42.276Z,36.17
2022-10-08T05:01:12.807Z,42.22
2022-10-08T05:03:43.371Z,29.80
2022-10-08T05:06:14.914Z,51.72
2022-10-08T05:08:43.226Z,66.20
2022-10-08T05:11:11.463Z,62.85
2022-10-08T05:13:39.813Z,39.15
2022-10-08T05:16:09.846Z,44.30
2022-10-08T05:18:39.356Z,23.02
2022-10-08T05:21:09.112Z,37.35
2022-10-08T05:23:38.850Z,24.65
2022-10-08T05:26:15.678Z,22.80
2022-10-08T05:28:44.017Z,39.70
2022-10-08T05:31:12.598Z,43.75
2022-10-08T05:33:40.906Z,103.33
2022-10-08T05:36:16.340Z,86.65
2022-10-08T05:38:45.876Z,94.35
2022-10-08T05:43:43.282Z,28.73
2022-10-08T05:46:12.163Z,50.28
2022-10-08T05:48:41.258Z,27.95
2022-10-08T05:51:11.283Z,78.55
2022-10-08T05:53:40.662Z,38.90
2022-10-08T05:56:12.075Z,44.88
2022-10-08T05:58:41.137Z,46.20
2022-10-08T06:01:14.518Z,58.75
2022-10-08T06:03:42.742Z,49.10
2022-10-08T06:06:13.135Z,43.83
2022-10-08T06:08:41.358Z,32.75
2022-10-08T06:11:10.842Z,34.45
2022-10-08T06:16:09.240Z,50.00
2022-10-08T06:18:38.982Z,53.10
2022-10-08T06:21:08.802Z,44.70
2022-10-08T06:23:37.862Z,71.75
2022-10-08T06:26:07.261Z,55.00
2022-10-08T06:28:38.383Z,41.38
2022-10-08T06:31:07.575Z,35.42
2022-10-08T06:33:36.129Z,53.90
2022-10-08T06:36:05.077Z,35.42
2022-10-08T06:38:33.718Z,58.15
2022-10-08T06:41:01.974Z,35.03
2022-10-08T06:43:30.275Z,49.85
2022-10-08T06:46:00.933Z,53.20
2022-10-08T06:48:29.129Z,49.75
2022-10-08T06:51:00.811Z,57.13
2022-10-08T06:53:29.085Z,28.20
2022-10-08T06:55:58.815Z,48.72
2022-10-08T06:58:27.196Z,30.38
2022-10-08T07:01:04.858Z,21.27
2022-10-08T07:03:33.370Z,28.15
2022-10-08T07:06:02.243Z,29.05
2022-10-08T07:08:30.874Z,25.10
2022-10-08T07:11:05.055Z,17.47
2022-10-08T07:13:33.369Z,18.35
2022-10-08T07:16:08.575Z,19.73
2022-10-08T07:18:38.044Z,21.05
2022-10-08T07:23:34.511Z,18.08
2022-10-08T07:26:04.931Z,30.67
2022-10-08T07:28:36.417Z,23.08
2022-10-08T07:31:06.960Z,21.35
2022-10-08T07:33:35.325Z,16.83
2022-10-08T07:36:11.788Z,18.77
2022-10-08T07:38:40.522Z,20.13
2022-10-08T07:41:09.789Z,15.57
2022-10-08T07:43:41.049Z,12.25
2022-10-08T07:46:11.793Z,13.20
2022-10-08T07:48:40.470Z,22.17
2022-10-08T07:51:13.397Z,17.07
2022-10-08T07:53:42.256Z,15.10
2022-10-08T07:56:11.790Z,14.85
2022-10-08T08:01:11.920Z,11.18
2022-10-08T08:03:40.042Z,15.90
2022-10-08T08:06:10.299Z,12.48
2022-10-08T08:08:39.965Z,8.13
2022-10-08T08:11:09.922Z,11.93
2022-10-08T08:13:40.362Z,9.02
2022-10-08T08:16:12.272Z,8.95
2022-10-08T08:18:42.787Z,9.52
2022-10-08T08:21:13.169Z,9.98
2022-10-08T08:23:43.288Z,11.52
2022-10-08T08:26:13.415Z,12.27
2022-10-08T08:28:42.407Z,11.68
2022-10-08T08:31:14.060Z,7.57
2022-10-08T08:33:43.057Z,9.32
2022-10-08T08:36:11.239Z,10.10
2022-10-08T08:38:39.595Z,8.57
2022-10-08T08:41:16.416Z,9.40
2022-10-08T08:43:46.686Z,10.50
2022-10-08T08:46:20.441Z,8.75
2022-10-08T08:48:48.785Z,8.35
2022-10-08T08:51:17.839Z,9.43
2022-10-08T08:53:45.951Z,10.88
2022-10-08T08:56:17.410Z,7.30
2022-10-08T08:58:50.232Z,8.80
2022-10-08T09:01:24.782Z,8.73
2022-10-08T09:03:55.843Z,12.05
2022-10-08T09:06:26.116Z,8.75
2022-10-08T09:08:57.929Z,7.57
2022-10-08T09:11:26.507Z,9.82
2022-10-08T09:14:01.245Z,7.82
2022-10-08T09:16:31.333Z,5.80
2022-10-08T09:18:59.374Z,10.18
2022-10-08T09:21:31.541Z,8.70
2022-10-08T09:23:59.770Z,9.10
2022-10-08T09:26:31.838Z,10.02
2022-10-08T09:29:02.699Z,6.25
2022-10-08T09:31:46.609Z,7.18
2022-10-08T09:34:20.185Z,9.60
2022-10-08T09:36:50.717Z,8.60
2022-10-08T09:39:21.109Z,7.05
2022-10-08T09:42:12.201Z,8.80
2022-10-08T09:44:41.911Z,6.55
2022-10-08T09:47:13.662Z,7.53
2022-10-08T09:49:42.193Z,10.02
2022-10-08T09:52:17.536Z,7.75
2022-10-08T09:54:49.534Z,5.15
2022-10-08T09:57:20.231Z,10.13
2022-10-08T09:59:54.701Z,5.60
2022-10-08T10:02:42.008Z,6.95
2022-10-08T10:05:22.819Z,7.50
2022-10-08T10:07:51.791Z,9.45
2022-10-08T10:10:25.182Z,8.48
2022-10-08T10:12:56.120Z,9.90
2022-10-08T10:15:27.736Z,16.20
2022-10-08T10:18:00.861Z,11.10
2022-10-08T10:20:34.249Z,8.82
2022-10-08T10:23:06.455Z,13.70
2022-10-08T10:25:39.545Z,9.88
2022-10-08T10:28:13.565Z,10.68
2022-10-08T10:30:50.534Z,9.95
2022-10-08T10:33:23.814Z,11.80
2022-10-08T10:35:55.703Z,9.38
2022-10-08T10:38:27.791Z,8.63
2022-10-08T10:41:07.006Z,36.45
2022-10-08T10:46:25.986Z,10.60
2022-10-08T10:48:56.323Z,10.20
2022-10-08T10:51:49.920Z,10.82
2022-10-08T10:54:36.920Z,12.52
2022-10-08T10:57:10.021Z,7.32
2022-10-08T10:59:47.744Z,8.95
2022-10-08T11:02:24.119Z,11.07
2022-10-08T11:05:03.003Z,22.13
2022-10-08T11:07:44.670Z,10.13
2022-10-08T11:10:32.370Z,9.98
2022-10-08T11:13:08.808Z,7.97
2022-10-08T11:15:43.227Z,13.13
2022-10-08T11:18:21.581Z,7.25
2022-10-08T11:21:03.641Z,8.60
2022-10-08T11:23:56.090Z,10.43
2022-10-08T11:26:32.166Z,11.35
2022-10-08T11:29:09.709Z,10.18
2022-10-08T11:31:42.412Z,7.90
2022-10-08T11:34:27.181Z,17.50
2022-10-08T11:37:08.173Z,10.10
2022-10-08T11:39:50.262Z,9.90
2022-10-08T11:42:24.828Z,10.85
2022-10-08T11:44:52.958Z,10.38
2022-10-08T11:47:50.949Z,10.98
2022-10-08T11:50:26.109Z,7.43
2022-10-08T11:53:00.126Z,10.23
2022-10-08T11:55:30.814Z,11.20
2022-10-08T11:58:09.245Z,9.32
2022-10-08T12:00:42.965Z,10.15
2022-10-08T12:03:24.263Z,8.45
2022-10-08T12:05:54.314Z,11.85
2022-10-08T12:08:53.720Z,7.13
2022-10-08T12:11:51.043Z,8.57
2022-10-08T12:14:48.084Z,9.90
2022-10-08T12:17:17.205Z,9.18
2022-10-08T12:20:07.189Z,8.32
2022-10-08T12:23:07.668Z,10.45
2022-10-08T12:25:40.264Z,11.35
2022-10-08T12:28:40.185Z,10.57
2022-10-08T12:31:27.027Z,8.75
2022-10-08T12:34:14.083Z,7.82
2022-10-08T12:36:49.404Z,8.73
2022-10-08T12:39:25.798Z,12.00
2022-10-08T12:42:04.544Z,6.93
2022-10-08T12:44:45.124Z,7.30
2022-10-08T12:47:23.341Z,6.55
2022-10-08T12:49:57.879Z,10.60
2022-10-08T12:52:27.168Z,10.15
2022-10-08T12:54:56.613Z,7.60
2022-10-08T12:57:30.297Z,9.63
2022-10-08T13:00:00.051Z,7.82
2022-10-08T13:02:35.133Z,6.93
2022-10-08T13:05:03.199Z,7.43
2022-10-08T13:07:33.223Z,10.67
2022-10-08T13:10:03.223Z,9.15
2022-10-08T13:12:32.620Z,9.18
2022-10-08T13:15:05.140Z,6.53
2022-10-08T13:17:36.052Z,6.32
2022-10-08T13:20:15.219Z,9.45
2022-10-08T13:22:43.356Z,10.32
2022-10-08T13:25:33.477Z,6.03
2022-10-08T13:28:15.226Z,7.43
2022-10-08T13:30:46.400Z,9.00
2022-10-08T13:33:19.123Z,4.95
2022-10-08T13:35:54.281Z,8.73
2022-10-08T13:38:26.580Z,9.55
2022-10-08T13:40:58.536Z,9.68
2022-10-08T13:43:28.136Z,9.77
2022-10-08T13:45:57.219Z,8.27
2022-10-08T13:50:54.747Z,10.18
2022-10-08T13:53:25.501Z,7.30
2022-10-08T13:55:53.929Z,9.13
2022-10-08T13:58:22.214Z,10.77
2022-10-08T14:00:51.910Z,12.43
2022-10-08T14:03:20.129Z,10.70
2022-10-08T14:05:49.766Z,14.10
2022-10-08T14:08:19.771Z,9.70
2022-10-08T14:10:48.033Z,8.73
2022-10-08T14:13:17.185Z,13.47
2022-10-08T14:18:14.490Z,8.60
2022-10-08T14:20:42.939Z,11.02
2022-10-08T14:23:13.426Z,11.18
2022-10-08T14:25:41.517Z,15.50
2022-10-08T14:28:09.575Z,10.55
2022-10-08T14:30:37.795Z,9.15
2022-10-08T14:33:10.988Z,10.68
2022-10-08T14:35:41.242Z,8.73
2022-10-08T14:38:09.711Z,11.93
2022-10-08T14:40:37.929Z,9.80
2022-10-08T14:43:06.008Z,11.25
2022-10-08T14:45:34.068Z,8.60
2022-10-08T14:48:02.137Z,17.80
2022-10-08T14:50:30.201Z,13.82
2022-10-08T14:52:59.631Z,11.00
2022-10-08T14:55:27.782Z,10.88
2022-10-08T14:57:55.986Z,11.98
2022-10-08T15:00:24.097Z,9.95
2022-10-08T15:02:52.229Z,10.38
2022-10-08T15:05:20.506Z,12.00
2022-10-08T15:07:49.020Z,13.65
2022-10-08T15:10:18.837Z,11.95
2022-10-08T15:12:47.288Z,8.57
2022-10-08T15:15:15.584Z,11.30
2022-10-08T15:17:43.949Z,8.20
2022-10-08T15:20:11.967Z,9.73
2022-10-08T15:22:40.058Z,9.15
2022-10-08T15:25:09.010Z,9.77
2022-10-08T15:27:38.591Z,11.85
2022-10-08T15:30:07.537Z,13.57
2022-10-08T15:32:37.157Z,9.95
2022-10-08T15:35:05.590Z,9.93
2022-10-08T15:37:33.790Z,9.87
2022-10-08T15:40:01.861Z,15.52
2022-10-08T15:42:29.922Z,13.55
2022-10-08T15:44:59.512Z,21.10
2022-10-08T15:47:27.870Z,30.60
2022-10-08T15:49:55.915Z,19.60
2022-10-08T15:52:23.961Z,24.70
2022-10-08T15:54:52.011Z,19.23
2022-10-08T15:57:20.097Z,18.10
2022-10-08T15:59:48.184Z,15.07
2022-10-08T16:02:18.623Z,11.20
2022-10-08T16:04:47.953Z,9.70
2022-10-08T16:07:16.418Z,11.30
2022-10-08T16:09:44.683Z,10.73
2022-10-08T16:12:12.747Z,10.80
2022-10-08T16:14:41.065Z,9.00
2022-10-08T16:17:09.746Z,10.90
2022-10-08T16:19:39.215Z,13.60
2022-10-08T16:22:08.886Z,12.90
2022-10-08T16:24:37.099Z,9.75
2022-10-08T16:27:05.290Z,18.25
2022-10-08T16:29:33.399Z,12.23
2022-10-08T16:32:01.467Z,10.23
2022-10-08T16:34:30.984Z,9.80
2022-10-08T16:37:02.044Z,13.95
2022-10-08T16:39:30.148Z,11.52
2022-10-08T16:41:58.180Z,11.18
2022-10-08T16:44:26.505Z,14.82
2022-10-08T16:46:54.877Z,11.98
2022-10-08T16:49:25.710Z,11.25
2022-10-08T16:51:56.539Z,11.27
2022-10-08T16:54:26.406Z,12.65
2022-10-08T16:56:54.677Z,9.85
2022-10-08T16:59:24.638Z,11.35
2022-10-08T17:01:54.919Z,10.35
2022-10-08T17:04:24.570Z,16.52
2022-10-08T17:06:53.153Z,16.75
2022-10-08T17:09:21.478Z,15.07
2022-10-08T17:11:50.920Z,11.18
2022-10-08T17:16:47.061Z,12.63
2022-10-08T17:19:15.237Z,11.55
2022-10-08T17:21:43.402Z,13.68
2022-10-08T17:24:12.893Z,11.45
2022-10-08T17:29:13.778Z,14.85
2022-10-08T17:31:42.544Z,13.10
2022-10-08T17:34:11.558Z,11.57
2022-10-08T17:36:42.651Z,11.55
2022-10-08T17:39:14.149Z,12.43
2022-10-08T17:41:44.037Z,12.75
2022-10-08T17:44:14.369Z,12.73
2022-10-08T17:46:45.828Z,14.18
2022-10-08T17:49:15.111Z,10.52
2022-10-08T17:51:44.248Z,14.15
2022-10-08T17:54:15.040Z,15.40
2022-10-08T17:56:43.391Z,13.93
2022-10-08T17:59:16.485Z,12.98
2022-10-08T18:01:45.743Z,12.30
2022-10-08T18:06:46.097Z,10.95
2022-10-08T18:09:16.801Z,13.82
2022-10-08T18:11:47.616Z,11.60
2022-10-08T18:14:17.488Z,13.18
2022-10-08T18:16:48.194Z,14.52
2022-10-08T18:19:17.405Z,19.17
2022-10-08T18:21:45.872Z,15.80
2022-10-08T18:24:13.930Z,17.60
2022-10-08T18:26:42.225Z,14.18
2022-10-08T18:29:11.974Z,25.98
2022-10-08T18:31:43.456Z,21.23
2022-10-08T18:34:15.658Z,24.52
2022-10-08T18:36:44.185Z,26.55
2022-10-08T18:39:13.839Z,25.37
2022-10-08T18:41:43.820Z,21.63
2022-10-08T18:44:14.510Z,17.75
2022-10-08T18:46:44.753Z,15.57
2022-10-08T18:49:15.334Z,15.88
2022-10-08T18:51:43.610Z,17.92
2022-10-08T18:54:12.846Z,13.40
2022-10-08T18:56:41.466Z,13.77
2022-10-08T18:59:14.025Z,13.70
2022-10-08T19:01:45.354Z,16.30
2022-10-08T19:04:15.314Z,14.85
2022-10-08T19:06:44.818Z,15.93
2022-10-08T19:11:45.025Z,19.95
2022-10-08T19:14:15.299Z,18.95
2022-10-08T19:16:45.434Z,16.75
2022-10-08T19:19:16.088Z,17.70
2022-10-08T19:21:44.497Z,16.02
2022-10-08T19:24:15.257Z,14.63
2022-10-08T19:26:43.754Z,18.50
2022-10-08T19:29:16.340Z,15.75
2022-10-08T19:31:48.611Z,13.20
2022-10-08T19:34:18.846Z,13.32
2022-10-08T19:36:47.117Z,19.35
2022-10-08T19:39:17.074Z,11.27
2022-10-08T19:41:45.804Z,12.50
2022-10-08T19:44:14.466Z,12.02
2022-10-08T19:46:42.594Z,9.60
2022-10-08T19:49:12.681Z,13.18
2022-10-08T19:51:40.967Z,13.52
2022-10-08T19:54:09.467Z,12.60
2022-10-08T19:56:37.699Z,10.95
2022-10-08T19:59:06.352Z,10.77
2022-10-08T20:01:36.693Z,12.38
2022-10-08T20:04:06.678Z,10.65
2022-10-08T20:06:39.654Z,13.35
2022-10-08T20:09:10.292Z,14.05
2022-10-08T20:11:38.966Z,11.45
2022-10-08T20:14:07.110Z,12.30
2022-10-08T20:16:36.998Z,12.98
2022-10-08T20:19:07.362Z,13.27
2022-10-08T20:21:38.271Z,14.32
2022-10-08T20:24:07.087Z,12.07
2022-10-08T20:26:36.531Z,13.18
2022-10-08T20:31:36.708Z,17.35
2022-10-08T20:34:06.668Z,11.38
2022-10-08T20:36:36.427Z,9.80
2022-10-08T20:39:05.063Z,10.48
2022-10-08T20:41:33.100Z,12.93
2022-10-08T20:44:02.851Z,13.30
2022-10-08T20:46:31.520Z,13.48
2022-10-08T20:49:00.249Z,13.80
2022-10-08T20:51:30.201Z,19.10
2022-10-08T20:54:01.387Z,12.40
2022-10-08T20:56:32.035Z,10.23
2022-10-08T20:59:01.869Z,14.48
2022-10-08T21:01:32.156Z,13.57
2022-10-08T21:04:00.847Z,10.85
2022-10-08T21:06:30.582Z,11.00
2022-10-08T21:09:00.839Z,8.68
2022-10-08T21:11:31.156Z,11.68
2022-10-08T21:14:01.501Z,11.43
2022-10-08T21:16:31.650Z,7.97
2022-10-08T21:19:01.947Z,11.63
2022-10-08T21:21:31.380Z,13.02
2022-10-08T21:24:01.090Z,11.05
2022-10-08T21:26:31.006Z,11.02
2022-10-08T21:29:00.482Z,12.73
2022-10-08T21:33:58.113Z,9.53
2022-10-08T21:36:29.970Z,9.52
2022-10-08T21:39:01.423Z,8.55
2022-10-08T21:41:31.550Z,14.65
2022-10-08T21:44:02.140Z,6.70
2022-10-08T21:46:32.480Z,6.68
2022-10-08T21:49:01.978Z,9.65
2022-10-08T21:54:02.236Z,8.23
2022-10-08T21:56:32.936Z,8.75
2022-10-08T21:59:02.900Z,14.43
2022-10-08T22:01:34.557Z,9.20
2022-10-08T22:04:04.488Z,8.38
2022-10-08T22:06:34.394Z,8.23
2022-10-08T22:09:04.404Z,7.13
2022-10-08T22:11:32.484Z,8.07
2022-10-08T22:14:00.693Z,6.38
2022-10-08T22:16:29.639Z,9.80
2022-10-08T22:18:58.893Z,10.05
2022-10-08T22:21:27.156Z,10.40
2022-10-08T22:23:55.350Z,6.15
2022-10-08T22:26:28.251Z,9.32
2022-10-08T22:28:57.776Z,8.60
2022-10-08T22:33:54.857Z,8.15
2022-10-08T22:36:25.615Z,7.57
2022-10-08T22:38:54.815Z,6.45
2022-10-08T22:41:25.869Z,5.65
2022-10-08T22:43:54.014Z,9.15
2022-10-08T22:46:24.247Z,8.75
2022-10-08T22:48:52.714Z,9.60
2022-10-08T22:51:22.564Z,8.57
2022-10-08T22:53:50.614Z,7.18
2022-10-08T22:56:20.861Z,8.50
2022-10-08T22:58:50.996Z,12.02
2022-10-08T23:01:21.618Z,9.75
2022-10-08T23:03:50.496Z,8.85
2022-10-08T23:06:20.457Z,10.90
2022-10-08T23:08:52.696Z,6.63
2022-10-08T23:11:20.868Z,11.50
2022-10-08T23:13:52.731Z,10.70
2022-10-08T23:16:21.310Z,8.98
2022-10-08T23:18:54.848Z,8.07
2022-10-08T23:21:23.568Z,7.80
2022-10-08T23:23:52.191Z,8.43
2022-10-08T23:26:20.285Z,8.13
2022-10-08T23:28:54.069Z,6.75
2022-10-08T23:31:24.305Z,7.88
2022-10-08T23:33:53.985Z,6.65
2022-10-08T23:36:24.528Z,8.00
2022-10-08T23:38:53.019Z,8.63
2022-10-08T23:41:21.351Z,8.82
2022-10-08T23:43:51.540Z,7.95
2022-10-08T23:46:22.383Z,10.52
2022-10-08T23:48:51.205Z,8.68
2022-10-08T23:51:20.756Z,7.68
2022-10-08T23:53:49.587Z,9.02
2022-10-08T23:56:17.767Z,7.70
2022-10-08T23:58:45.789Z,9.77
